createdAt,value
2022-08-16T00:01:41.757Z,21.50
2022-08-16T00:04:14.558Z,21.50
2022-08-16T00:06:52.298Z,21.50
2022-08-16T00:09:38.023Z,21.50
2022-08-16T00:12:19.032Z,21.50
2022-08-16T00:14:58.014Z,21.50
2022-08-16T00:17:57.123Z,21.50
2022-08-16T00:20:31.756Z,21.50
2022-08-16T00:23:10.898Z,21.50
2022-08-16T00:26:13.555Z,21.40
2022-08-16T00:28:42.306Z,21.40
2022-08-16T00:31:26.401Z,21.40
2022-08-16T00:34:21.642Z,21.40
2022-08-16T00:37:03.664Z,21.40
2022-08-16T00:39:58.335Z,21.30
2022-08-16T00:42:41.576Z,21.20
2022-08-16T00:45:39.372Z,21.20
2022-08-16T00:49:06.731Z,21.20
2022-08-16T00:52:29.564Z,21.10
2022-08-16T00:55:15.451Z,21.00
2022-08-16T00:58:18.610Z,21.00
2022-08-16T01:05:09.503Z,20.90
2022-08-16T01:08:36.060Z,20.90
2022-08-16T01:11:33.141Z,20.90
2022-08-16T01:14:20.336Z,21.00
2022-08-16T01:17:12.465Z,21.00
2022-08-16T01:24:00.758Z,21.00
2022-08-16T01:26:34.826Z,21.00
2022-08-16T01:29:13.997Z,21.10
2022-08-16T01:32:38.383Z,21.10
2022-08-16T01:35:27.045Z,21.10
2022-08-16T01:38:38.100Z,21.10
2022-08-16T01:41:25.944Z,21.00
2022-08-16T01:44:18.565Z,20.90
2022-08-16T01:47:00.420Z,20.90
2022-08-16T01:49:42.997Z,20.80
2022-08-16T01:52:29.406Z,20.70
2022-08-16T01:55:06.163Z,20.60
2022-08-16T01:57:39.507Z,20.60
2022-08-16T02:00:19.402Z,20.50
2022-08-16T02:02:56.371Z,20.50
2022-08-16T02:05:30.380Z,20.40
2022-08-16T02:08:00.394Z,20.50
2022-08-16T02:10:30.309Z,20.40
2022-08-16T02:13:08.569Z,20.40
2022-08-16T02:15:43.900Z,20.40
2022-08-16T02:21:00.920Z,20.40
2022-08-16T02:23:32.151Z,20.40
2022-08-16T02:26:03.766Z,20.40
2022-08-16T02:28:33.301Z,20.40
2022-08-16T02:31:09.304Z,20.40
2022-08-16T02:33:50.186Z,20.40
2022-08-16T02:36:42.506Z,20.40
2022-08-16T02:39:15.012Z,20.50
2022-08-16T02:41:53.218Z,20.50
2022-08-16T02:44:28.401Z,20.50
2022-08-16T02:47:02.842Z,20.50
2022-08-16T02:49:59.146Z,20.40
2022-08-16T02:52:35.788Z,20.40
2022-08-16T02:55:17.050Z,20.30
2022-08-16T02:58:07.119Z,20.40
2022-08-16T03:00:51.853Z,20.30
2022-08-16T03:04:28.792Z,20.30
2022-08-16T03:06:41.789Z,20.20
2022-08-16T03:09:18.025Z,20.20
2022-08-16T03:11:55.341Z,20.20
2022-08-16T03:14:29.418Z,20.20
2022-08-16T03:17:02.200Z,20.10
2022-08-16T03:19:47.953Z,20.10
2022-08-16T03:22:33.055Z,20.10
2022-08-16T03:25:07.794Z,20.10
2022-08-16T03:27:40.974Z,20.10
2022-08-16T03:30:18.317Z,20.10
2022-08-16T03:32:52.348Z,20.10
2022-08-16T03:35:33.078Z,20.10
2022-08-16T03:38:33.897Z,20.10
2022-08-16T03:41:14.462Z,20.10
2022-08-16T03:43:58.615Z,20.00
2022-08-16T03:46:47.749Z,20.00
2022-08-16T03:49:36.972Z,20.00
2022-08-16T03:52:09.821Z,20.00
2022-08-16T03:54:57.396Z,20.00
2022-08-16T03:57:31.941Z,19.90
2022-08-16T04:00:36.271Z,19.90
2022-08-16T04:03:18.592Z,19.90
2022-08-16T04:05:55.975Z,20.00
2022-08-16T04:08:34.748Z,19.90
2022-08-16T04:11:04.133Z,19.90
2022-08-16T04:14:01.848Z,19.90
2022-08-16T04:16:40.816Z,19.90
2022-08-16T04:19:36.368Z,19.90
2022-08-16T04:22:27.726Z,19.90
2022-08-16T04:25:11.629Z,19.90
2022-08-16T04:28:52.407Z,20.00
2022-08-16T04:31:55.750Z,20.00
2022-08-16T04:38:21.244Z,20.10
2022-08-16T04:41:48.358Z,20.10
2022-08-16T04:48:04.953Z,20.10
2022-08-16T04:51:13.630Z,20.10
2022-08-16T04:54:05.916Z,20.20
2022-08-16T04:56:59.613Z,20.20
2022-08-16T04:59:39.975Z,20.20
2022-08-16T05:02:41.666Z,20.20
2022-08-16T05:08:30.750Z,20.30
2022-08-16T05:11:12.729Z,20.30
2022-08-16T05:13:52.258Z,20.30
2022-08-16T05:16:39.383Z,20.40
2022-08-16T05:22:20.733Z,20.50
2022-08-16T05:25:09.034Z,20.50
2022-08-16T05:27:55.268Z,20.50
2022-08-16T05:30:43.211Z,20.60
2022-08-16T05:33:18.045Z,20.60
2022-08-16T05:36:04.904Z,20.70
2022-08-16T05:38:53.440Z,20.70
2022-08-16T05:41:44.622Z,20.70
2022-08-16T05:44:25.446Z,20.70
2022-08-16T05:47:08.345Z,20.70
2022-08-16T05:50:02.349Z,20.70
2022-08-16T05:52:44.839Z,20.80
2022-08-16T05:55:15.062Z,20.80
2022-08-16T05:57:44.321Z,20.90
2022-08-16T06:00:23.862Z,20.90
2022-08-16T06:03:00.228Z,21.00
2022-08-16T06:05:41.601Z,21.10
2022-08-16T06:11:57.611Z,21.10
2022-08-16T06:14:59.477Z,21.20
2022-08-16T06:17:51.695Z,21.20
2022-08-16T06:20:55.080Z,21.30
2022-08-16T06:23:34.148Z,21.40
2022-08-16T06:26:57.907Z,21.50
2022-08-16T06:29:37.513Z,21.60
2022-08-16T06:32:27.357Z,21.60
2022-08-16T06:35:09.421Z,21.70
2022-08-16T06:37:58.561Z,21.70
2022-08-16T06:40:33.653Z,21.70
2022-08-16T06:43:15.159Z,21.80
2022-08-16T06:45:57.221Z,21.90
2022-08-16T06:48:44.618Z,22.00
2022-08-16T06:51:45.998Z,22.00
2022-08-16T06:54:39.792Z,22.10
2022-08-16T06:57:20.637Z,22.10
2022-08-16T07:00:27.161Z,22.10
2022-08-16T07:03:01.295Z,22.20
2022-08-16T07:05:58.964Z,22.20
2022-08-16T07:08:34.542Z,22.20
2022-08-16T07:11:13.550Z,22.20
2022-08-16T07:14:30.349Z,22.30
2022-08-16T07:17:08.429Z,22.30
2022-08-16T07:20:03.185Z,22.40
2022-08-16T07:22:39.883Z,22.40
2022-08-16T07:25:24.294Z,22.50
2022-08-16T07:28:05.111Z,22.50
2022-08-16T07:31:13.050Z,22.60
2022-08-16T07:33:54.964Z,22.70
2022-08-16T07:36:39.890Z,22.70
2022-08-16T07:39:23.917Z,22.70
2022-08-16T07:41:59.109Z,22.80
2022-08-16T07:44:50.419Z,22.80
2022-08-16T07:47:24.408Z,22.90
2022-08-16T07:49:58.086Z,23.00
2022-08-16T07:52:30.827Z,23.10
2022-08-16T07:55:16.571Z,23.20
2022-08-16T07:58:18.089Z,23.20
2022-08-16T08:00:55.524Z,23.20
2022-08-16T08:03:58.397Z,23.20
2022-08-16T08:06:42.608Z,23.20
2022-08-16T08:09:27.025Z,23.20
2022-08-16T08:12:00.620Z,23.20
2022-08-16T08:14:49.810Z,23.30
2022-08-16T08:17:42.884Z,23.30
2022-08-16T08:20:27.938Z,23.30
2022-08-16T08:23:01.335Z,23.30
2022-08-16T08:25:54.990Z,23.30
2022-08-16T08:28:26.981Z,23.40
2022-08-16T08:31:00.622Z,23.40
2022-08-16T08:33:32.308Z,23.40
2022-08-16T08:36:07.349Z,23.40
2022-08-16T08:38:42.196Z,23.50
2022-08-16T08:41:14.076Z,23.50
2022-08-16T08:43:43.146Z,23.60
2022-08-16T08:46:21.313Z,23.60
2022-08-16T08:49:02.101Z,23.70
2022-08-16T08:51:36.963Z,23.80
2022-08-16T08:54:07.046Z,23.90
2022-08-16T08:56:45.289Z,24.00
2022-08-16T08:59:24.955Z,24.10
2022-08-16T09:01:57.773Z,24.10
2022-08-16T09:04:34.018Z,24.10
2022-08-16T09:07:04.954Z,24.20
2022-08-16T09:09:40.925Z,24.20
2022-08-16T09:12:31.241Z,24.10
2022-08-16T09:15:01.491Z,24.10
2022-08-16T09:17:52.349Z,24.10
2022-08-16T09:20:33.601Z,24.20
2022-08-16T09:23:03.548Z,24.30
2022-08-16T09:25:34.321Z,24.40
2022-08-16T09:28:11.201Z,24.50
2022-08-16T09:30:44.381Z,24.50
2022-08-16T09:33:25.178Z,24.50
2022-08-16T09:35:58.411Z,24.60
2022-08-16T09:38:32.195Z,24.60
2022-08-16T09:43:59.194Z,24.50
2022-08-16T09:46:48.201Z,24.50
2022-08-16T09:49:20.063Z,24.40
2022-08-16T09:51:58.883Z,24.50
2022-08-16T09:54:33.916Z,24.50
2022-08-16T09:57:05.891Z,24.60
2022-08-16T09:59:44.719Z,24.60
2022-08-16T10:02:26.196Z,24.70
2022-08-16T10:05:03.203Z,24.70
2022-08-16T10:07:44.949Z,24.70
2022-08-16T10:10:31.054Z,24.80
2022-08-16T10:13:16.370Z,24.80
2022-08-16T10:15:55.975Z,24.80
2022-08-16T10:19:01.299Z,24.80
2022-08-16T10:21:22.631Z,24.70
2022-08-16T10:23:56.075Z,24.70
2022-08-16T10:27:18.137Z,24.80
2022-08-16T10:29:25.098Z,24.90
2022-08-16T10:32:26.123Z,25.00
2022-08-16T10:34:58.798Z,25.20
2022-08-16T10:37:35.697Z,25.40
2022-08-16T10:40:29.693Z,25.50
2022-08-16T10:43:03.364Z,25.60
2022-08-16T10:45:37.545Z,25.60
2022-08-16T10:48:27.261Z,25.60
2022-08-16T10:50:58.457Z,25.60
2022-08-16T10:53:32.928Z,25.70
2022-08-16T10:56:03.196Z,25.80
2022-08-16T10:58:37.637Z,25.80
2022-08-16T11:03:59.623Z,25.90
2022-08-16T11:06:35.015Z,26.00
2022-08-16T11:09:28.889Z,26.00
2022-08-16T11:12:15.129Z,25.90
2022-08-16T11:17:36.389Z,25.90
2022-08-16T11:23:22.709Z,25.90
2022-08-16T11:26:07.501Z,25.80
2022-08-16T11:31:54.414Z,25.80
2022-08-16T11:35:03.799Z,25.80
2022-08-16T11:38:05.938Z,25.80
2022-08-16T11:40:32.661Z,25.80
2022-08-16T11:43:10.221Z,25.90
2022-08-16T11:45:39.376Z,26.00
2022-08-16T11:48:14.554Z,26.00
2022-08-16T11:50:46.405Z,25.90
2022-08-16T11:53:22.015Z,25.90
2022-08-16T11:56:14.901Z,25.90
2022-08-16T11:58:51.582Z,25.90
2022-08-16T12:01:29.527Z,25.90
2022-08-16T12:04:05.686Z,26.00
2022-08-16T12:06:50.405Z,26.10
2022-08-16T12:09:32.288Z,26.10
2022-08-16T12:12:05.144Z,26.20
2022-08-16T12:14:40.099Z,26.20
2022-08-16T12:17:12.926Z,26.20
2022-08-16T12:19:54.007Z,26.20
2022-08-16T12:22:34.106Z,26.20
2022-08-16T12:25:12.593Z,26.20
2022-08-16T12:28:00.089Z,26.20
2022-08-16T12:30:38.942Z,26.20
2022-08-16T12:33:12.972Z,26.10
2022-08-16T12:35:42.737Z,26.10
2022-08-16T12:38:41.284Z,26.10
2022-08-16T12:41:25.324Z,26.20
2022-08-16T12:44:01.294Z,26.30
2022-08-16T12:46:31.152Z,26.40
2022-08-16T12:48:59.514Z,26.50
2022-08-16T12:51:57.720Z,26.60
2022-08-16T12:54:20.937Z,26.60
2022-08-16T12:57:02.124Z,26.60
2022-08-16T12:59:48.840Z,26.60
2022-08-16T13:02:33.721Z,26.60
2022-08-16T13:05:19.058Z,26.50
2022-08-16T13:07:55.045Z,26.40
2022-08-16T13:10:37.458Z,26.40
2022-08-16T13:13:36.790Z,26.30
2022-08-16T13:16:20.396Z,26.30
2022-08-16T13:19:04.157Z,26.30
2022-08-16T13:21:40.278Z,26.30
2022-08-16T13:30:37.734Z,26.20
2022-08-16T13:33:24.849Z,26.20
2022-08-16T13:36:48.816Z,26.20
2022-08-16T13:39:29.862Z,26.20
2022-08-16T13:42:04.224Z,26.20
2022-08-16T13:44:48.977Z,26.20
2022-08-16T13:47:30.192Z,26.30
2022-08-16T13:50:19.600Z,26.40
2022-08-16T13:53:10.660Z,26.40
2022-08-16T13:59:33.472Z,26.40
2022-08-16T14:02:34.756Z,26.40
2022-08-16T14:05:12.778Z,26.40
2022-08-16T14:08:07.744Z,26.50
2022-08-16T14:10:48.525Z,26.40
2022-08-16T14:16:33.708Z,26.30
2022-08-16T14:19:27.808Z,26.20
2022-08-16T14:22:30.704Z,26.20
2022-08-16T14:25:16.346Z,26.20
2022-08-16T14:28:13.939Z,26.20
2022-08-16T14:31:15.500Z,26.20
2022-08-16T14:33:58.435Z,26.20
2022-08-16T14:36:31.049Z,26.20
2022-08-16T14:42:18.572Z,26.10
2022-08-16T14:48:05.040Z,26.00
2022-08-16T14:50:44.734Z,26.00
2022-08-16T14:53:24.588Z,25.90
2022-08-16T14:56:42.614Z,25.80
2022-08-16T14:59:13.416Z,25.80
2022-08-16T15:02:00.904Z,25.80
2022-08-16T15:04:40.059Z,25.80
2022-08-16T15:07:24.451Z,25.80
2022-08-16T15:10:37.295Z,25.80
2022-08-16T15:13:22.009Z,25.80
2022-08-16T15:16:04.087Z,25.70
2022-08-16T15:18:49.977Z,25.70
2022-08-16T15:21:38.925Z,25.60
2022-08-16T15:24:22.701Z,25.60
2022-08-16T15:27:19.366Z,25.60
2022-08-16T15:33:32.034Z,25.50
2022-08-16T15:36:26.689Z,25.40
2022-08-16T15:39:30.145Z,25.50
2022-08-16T15:42:30.511Z,25.50
2022-08-16T15:48:44.830Z,25.60
2022-08-16T15:55:00.481Z,25.60
2022-08-16T15:58:34.624Z,25.60
2022-08-16T16:01:11.528Z,25.50
2022-08-16T16:03:50.864Z,25.50
2022-08-16T16:06:54.981Z,25.40
2022-08-16T16:10:22.988Z,25.40
2022-08-16T16:16:25.935Z,25.30
2022-08-16T16:35:19.217Z,25.20
2022-08-16T16:38:00.897Z,25.10
2022-08-16T16:41:10.153Z,25.10
2022-08-16T16:57:42.395Z,25.30
2022-08-16T17:00:38.326Z,25.40
2022-08-16T17:03:38.521Z,25.50
2022-08-16T17:06:11.818Z,25.50
2022-08-16T17:09:10.646Z,25.40
2022-08-16T17:12:47.111Z,25.30
2022-08-16T17:15:23.773Z,25.30
2022-08-16T17:22:32.798Z,25.20
2022-08-16T17:28:59.387Z,24.80
2022-08-16T17:45:02.715Z,24.60
2022-08-16T17:57:31.005Z,24.50
2022-08-16T18:00:08.083Z,24.50
2022-08-16T18:10:14.892Z,24.40
2022-08-16T18:13:42.986Z,24.30
2022-08-16T18:20:00.526Z,24.30
2022-08-16T18:22:53.239Z,24.20
2022-08-16T18:25:47.181Z,24.10
2022-08-16T18:32:13.737Z,23.80
2022-08-16T19:05:09.086Z,23.70
2022-08-16T19:10:50.008Z,23.70
2022-08-16T19:13:30.324Z,23.70
2022-08-16T19:16:21.776Z,23.60
2022-08-16T19:23:12.210Z,23.40
2022-08-16T19:29:20.566Z,23.30
2022-08-16T19:44:39.130Z,23.20
2022-08-16T19:50:58.844Z,23.20
2022-08-16T19:54:31.107Z,23.20
2022-08-16T19:57:54.503Z,23.20
2022-08-16T20:01:16.888Z,23.20
2022-08-16T20:07:11.786Z,23.10
2022-08-16T20:10:23.401Z,23.00
2022-08-16T20:13:10.900Z,23.00
2022-08-16T20:16:32.863Z,22.90
2022-08-16T20:23:24.733Z,22.90
2022-08-16T20:26:23.597Z,23.00
2022-08-16T20:28:57.712Z,22.90
2022-08-16T20:31:51.355Z,22.80
2022-08-16T20:34:39.818Z,22.80
2022-08-16T20:37:21.897Z,22.80
2022-08-16T20:43:37.757Z,22.70
2022-08-16T20:49:49.206Z,22.70
2022-08-16T20:52:26.421Z,22.70
2022-08-16T20:55:02.654Z,22.60
2022-08-16T20:57:39.346Z,22.60
2022-08-16T21:00:15.398Z,22.60
2022-08-16T21:03:06.579Z,22.60
2022-08-16T21:05:53.732Z,22.60
2022-08-16T21:09:07.125Z,22.60
2022-08-16T21:11:40.524Z,22.60
2022-08-16T21:20:46.301Z,22.60
2022-08-16T21:26:29.261Z,22.50
2022-08-16T21:29:39.767Z,22.40
2022-08-16T21:42:14.359Z,22.40
2022-08-16T21:48:53.501Z,22.40
2022-08-16T21:55:34.691Z,22.40
2022-08-16T21:58:22.978Z,22.30
2022-08-16T22:01:39.543Z,22.30
2022-08-16T22:04:50.724Z,22.20
2022-08-16T22:08:18.076Z,22.20
2022-08-16T22:11:13.586Z,22.10
2022-08-16T22:13:56.490Z,22.10
2022-08-16T22:16:44.186Z,22.00
2022-08-16T22:19:49.444Z,22.00
2022-08-16T22:22:50.108Z,21.90
2022-08-16T22:25:59.319Z,21.90
2022-08-16T22:29:20.343Z,21.90
2022-08-16T22:36:02.368Z,21.80
2022-08-16T22:42:17.221Z,21.70
2022-08-16T22:51:56.219Z,21.60
2022-08-16T22:54:57.331Z,21.60
2022-08-16T22:58:19.984Z,21.60
2022-08-16T23:13:53.690Z,21.60
2022-08-16T23:20:10.584Z,21.50
2022-08-16T23:23:21.848Z,21.40
2022-08-16T23:55:07.001Z,20.80
